Time;durP1;ratioP1;P1;durP2;ratioP2;P2;SDS_P1;SDS_P2;PMS_P1;PMS_P2;Temp;Humidity;BMP_temperature;BMP_pressure;BME280_temperature;BME280_humidity;BME280_pressure;Samples;Min_cycle;Max_cycle;Signal;HPM_P1;HPM_P2
2021/06/01 00:02:23;;;;;;;3.28;2.53;;;;;;;;;;3583001;40;20400;-70
2021/06/01 00:04:49;;;;;;;2.55;2.35;;;;;;;;;;3586079;40;20381;-70
2021/06/01 00:07:16;;;;;;;2.95;2.70;;;;;;;;;;3579028;40;20461;-70
2021/06/01 00:09:43;;;;;;;2.40;2.20;;;;;;;;;;3582345;40;21063;-70
2021/06/01 00:12:09;;;;;;;2.47;1.98;;;;;;;;;;3590196;40;20365;-70
2021/06/01 00:14:36;;;;;;;2.50;2.10;;;;;;;;;;3591869;40;20718;-70
2021/06/01 00:17:02;;;;;;;2.78;1.98;;;;;;;;;;3587021;40;20374;-70
2021/06/01 00:19:28;;;;;;;3.88;2.08;;;;;;;;;;3587132;40;20771;-70
2021/06/01 00:21:54;;;;;;;2.30;2.10;;;;;;;;;;3586984;40;20972;-71
2021/06/01 00:24:22;;;;;;;3.00;1.70;;;;;;;;;;3587059;40;20382;-70
2021/06/01 00:26:48;;;;;;;1.98;1.60;;;;;;;;;;3589268;40;20447;-70
2021/06/01 00:29:14;;;;;;;1.75;1.60;;;;;;;;;;3589066;40;20397;-71
2021/06/01 00:31:42;;;;;;;2.70;1.63;;;;;;;;;;3587180;40;20758;-70
2021/06/01 00:34:08;;;;;;;2.30;1.70;;;;;;;;;;3578223;40;20485;-70
2021/06/01 00:36:35;;;;;;;2.72;2.30;;;;;;;;;;3580904;40;20379;-70
2021/06/01 00:39:01;;;;;;;2.45;1.83;;;;;;;;;;3577779;40;20390;-70
2021/06/01 00:41:28;;;;;;;3.20;1.75;;;;;;;;;;3584795;40;20372;-70
2021/06/01 00:43:54;;;;;;;2.40;1.77;;;;;;;;;;3584297;40;20721;-70
2021/06/01 00:46:20;;;;;;;1.60;1.45;;;;;;;;;;3587227;40;20460;-71
2021/06/01 00:48:47;;;;;;;1.70;1.60;;;;;;;;;;3587244;40;20366;-70
2021/06/01 00:51:13;;;;;;;2.20;1.48;;;;;;;;;;3587143;40;20381;-70
2021/06/01 00:53:39;;;;;;;2.28;1.65;;;;;;;;;;3583560;40;20380;-70
2021/06/01 00:56:06;;;;;;;2.53;1.75;;;;;;;;;;3585324;40;20375;-70
2021/06/01 00:58:34;;;;;;;1.90;1.70;;;;;;;;;;3584500;40;20715;-70
2021/06/01 01:06:04;;;;;;;2.10;1.42;;;;;;;;;;3577023;40;20420;-77
2021/06/01 01:08:44;;;;;;;1.83;1.67;;;;;;;;;;3568166;40;20452;-76
2021/06/01 01:11:14;;;;;;;1.70;1.48;;;;;;;;;;3566283;40;20403;-75
2021/06/01 01:13:44;;;;;;;3.07;1.70;;;;;;;;;;3557912;40;20660;-77
2021/06/01 01:16:11;;;;;;;1.83;1.50;;;;;;;;;;3558162;40;20413;-76
2021/06/01 01:18:37;;;;;;;1.40;1.30;;;;;;;;;;3566519;40;20381;-76
2021/06/01 01:21:07;;;;;;;3.40;1.65;;;;;;;;;;3557780;40;20487;-76
2021/06/01 01:23:35;;;;;;;2.72;1.38;;;;;;;;;;3566160;40;20873;-79
2021/06/01 01:26:03;;;;;;;2.65;1.50;;;;;;;;;;3566303;40;20369;-77
2021/06/01 01:28:32;;;;;;;2.20;1.73;;;;;;;;;;3557657;40;20856;-77
2021/06/01 01:31:02;;;;;;;2.40;1.57;;;;;;;;;;3566106;40;20374;-76
2021/06/01 01:33:34;;;;;;;1.90;1.65;;;;;;;;;;3557943;40;20457;-76
2021/06/01 01:36:02;;;;;;;2.60;1.50;;;;;;;;;;3557723;40;20420;-77
2021/06/01 01:38:29;;;;;;;1.60;1.50;;;;;;;;;;3547715;40;20407;-77
2021/06/01 01:40:58;;;;;;;1.80;1.63;;;;;;;;;;3547775;40;20689;-76
2021/06/01 01:43:29;;;;;;;1.90;1.40;;;;;;;;;;3565907;40;20658;-76
2021/06/01 01:46:05;;;;;;;2.00;1.60;;;14.90;99.90;;;;;;3558588;40;20401;-77
2021/06/01 01:51:19;;;;;;;2.10;1.45;;;16.30;99.90;;;;;;3567760;40;20373;-75
2021/06/01 01:53:50;;;;;;;2.42;1.52;;;16.40;99.90;;;;;;3568430;40;20400;-76
2021/06/01 01:56:18;;;;;;;3.30;1.70;;;16.30;99.90;;;;;;3577734;40;20357;-77
2021/06/01 01:58:45;;;;;;;3.00;1.90;;;16.30;99.90;;;;;;3576624;40;20789;-76
2021/06/01 02:01:11;;;;;;;1.67;1.53;;;16.50;99.90;;;;;;3578389;40;20514;-77
2021/06/01 02:03:40;;;;;;;2.00;1.52;;;16.60;99.90;;;;;;3569549;40;20488;-76
2021/06/01 02:06:06;;;;;;;1.70;1.60;;;16.50;99.90;;;;;;3576216;40;20399;-77
2021/06/01 02:08:33;;;;;;;2.13;1.38;;;16.60;99.90;;;;;;3577151;40;20415;-77
2021/06/01 02:10:59;;;;;;;1.70;1.55;;;16.50;99.90;;;;;;3576663;40;20772;-76
2021/06/01 02:13:28;;;;;;;2.47;1.50;;;16.50;99.90;;;;;;3576525;40;20459;-77
2021/06/01 02:15:54;;;;;;;2.72;1.40;;;16.60;99.90;;;;;;3577736;40;20357;-76
2021/06/01 02:18:20;;;;;;;3.05;1.60;;;;;;;;;;3576937;40;20403;-77
2021/06/01 02:20:52;;;;;;;2.83;1.38;;;;;;;;;;3576785;40;20412;-76
2021/06/01 02:26:14;;;;;;;1.73;1.40;;;;;;;;;;3536416;40;20386;-76
2021/06/01 02:28:44;;;;;;;3.58;1.30;;;;;;;;;;3536258;40;20474;-76
2021/06/01 02:31:14;;;;;;;1.80;1.50;;;;;;;;;;3555360;40;20392;-76
2021/06/01 02:33:43;;;;;;;2.45;1.42;;;;;;;;;;3567247;40;20439;-77
2021/06/01 02:36:13;;;;;;;2.30;1.40;;;;;;;;;;3567508;40;20390;-78
2021/06/01 02:38:40;;;;;;;2.40;1.67;;;;;;;;;;3566428;40;20409;-77
2021/06/01 02:41:07;;;;;;;3.15;1.42;;;;;;;;;;3567395;40;20531;-76
2021/06/01 02:43:33;;;;;;;2.17;1.65;;;;;;;;;;3567774;40;20389;-77
2021/06/01 02:46:00;;;;;;;2.72;1.90;;;;;;;;;;3566640;40;20405;-78
2021/06/01 02:48:27;;;;;;;3.00;1.30;;;;;;;;;;3567796;40;20390;-76
2021/06/01 02:50:54;;;;;;;2.67;1.60;;;;;;;;;;3567483;40;20349;-76
2021/06/01 02:53:22;;;;;;;1.80;1.45;;;;;;;;;;3568170;40;20627;-76
2021/06/01 02:55:49;;;;;;;1.90;1.55;;;;;;;;;;3567670;40;20449;-77
2021/06/01 02:58:15;;;;;;;3.47;1.50;;;;;;;;;;3567666;40;20745;-77
2021/06/01 03:00:42;;;;;;;2.08;1.77;;;;;;;;;;3568685;40;20357;-76
2021/06/01 03:03:11;;;;;;;1.80;1.50;;;;;;;;;;3568665;40;20420;-77
2021/06/01 03:05:37;;;;;;;2.65;1.63;;;;;;;;;;3568789;40;20622;-77
2021/06/01 03:08:10;;;;;;;1.90;1.50;;;;;;;;;;3566476;40;20397;-77
2021/06/01 03:10:39;;;;;;;1.50;1.20;;;;;;;;;;3568858;40;20358;-77
2021/06/01 03:13:05;;;;;;;1.73;1.40;;;;;;;;;;3568999;40;20365;-77
2021/06/01 03:15:31;;;;;;;1.67;1.40;;;;;;;;;;3568679;40;20342;-76
2021/06/01 03:17:57;;;;;;;1.80;1.40;;;;;;;;;;3568084;40;20409;-77
2021/06/01 03:20:24;;;;;;;1.58;1.10;;;;;;;;;;3567828;40;20797;-77
2021/06/01 03:22:50;;;;;;;2.60;1.60;;;;;;;;;;3568702;40;20394;-76
2021/06/01 03:25:16;;;;;;;1.52;1.38;;;;;;;;;;3568605;40;20389;-76
2021/06/01 03:27:44;;;;;;;2.28;1.50;;;;;;;;;;3567918;40;20402;-77
2021/06/01 03:30:12;;;;;;;2.75;1.40;;;;;;;;;;3568015;40;20499;-76
2021/06/01 03:32:39;;;;;;;2.17;1.27;;;;;;;;;;3567684;40;20528;-78
2021/06/01 03:35:05;;;;;;;1.50;1.30;;;;;;;;;;3567646;40;20479;-76
2021/06/01 03:37:32;;;;;;;4.82;1.50;;;;;;;;;;3567575;40;20503;-77
2021/06/01 03:39:58;;;;;;;2.90;1.30;;;;;;;;;;3567852;40;20401;-76
2021/06/01 03:42:24;;;;;;;1.50;1.40;;;;;;;;;;3567856;40;20405;-77
2021/06/01 03:44:52;;;;;;;1.45;1.23;;;;;;;;;;3567672;40;20404;-77
2021/06/01 03:47:18;;;;;;;1.80;1.27;;;;;;;;;;3568730;40;20366;-76
2021/06/01 03:49:44;;;;;;;1.48;1.38;;;;;;;;;;3567490;40;20496;-76
2021/06/01 03:52:10;;;;;;;2.00;1.55;;;;;;;;;;3567516;40;20401;-77
2021/06/01 03:54:37;;;;;;;1.63;1.25;;;;;;;;;;3567851;40;20529;-76
2021/06/01 03:57:04;;;;;;;2.58;1.50;;;;;;;;;;3567595;40;20745;-76
2021/06/01 03:59:30;;;;;;;1.67;1.40;;;;;;;;;;3568706;40;20754;-77
2021/06/01 04:01:57;;;;;;;1.60;1.40;;;;;;;;;;3567442;40;20412;-77
2021/06/01 04:04:24;;;;;;;3.60;1.52;;;;;;;;;;3568572;40;20364;-77
2021/06/01 04:06:50;;;;;;;2.10;1.30;;;;;;;;;;3568869;40;20350;-77
2021/06/01 04:09:16;;;;;;;1.58;1.38;;;;;;;;;;3566026;40;20439;-76
2021/06/01 04:11:43;;;;;;;2.73;1.50;;;;;;;;;;3566246;40;20395;-78
2021/06/01 04:14:09;;;;;;;2.15;1.45;;;;;;;;;;3559084;40;20360;-78
2021/06/01 04:16:35;;;;;;;1.50;1.15;;;;;;;;;;3557929;40;20415;-77
2021/06/01 04:19:03;;;;;;;1.73;1.52;;;;;;;;;;3566130;40;20461;-79
2021/06/01 04:21:29;;;;;;;2.95;1.48;;;;;;;;;;3558790;40;20392;-79
2021/06/01 04:23:55;;;;;;;1.33;1.15;;;;;;;;;;3565757;40;20415;-77
2021/06/01 04:26:21;;;;;;;1.97;1.20;;;;;;;;;;3565775;40;20415;-76
2021/06/01 04:28:48;;;;;;;2.00;1.27;;;;;;;;;;3558430;40;20348;-76
2021/06/01 04:31:16;;;;;;;1.67;1.20;;;;;;;;;;3558617;40;20351;-76
2021/06/01 04:33:42;;;;;;;2.20;1.58;;;;;;;;;;3558944;40;20625;-75
2021/06/01 04:36:10;;;;;;;1.92;1.73;;;;;;;;;;3558684;40;20403;-77
2021/06/01 04:38:36;;;;;;;3.30;2.40;;;;;;;;;;3565732;40;20718;-77
2021/06/01 04:41:02;;;;;;;3.55;3.20;;;;;;;;;;3565733;40;20657;-77
2021/06/01 04:43:28;;;;;;;7.78;4.28;;;;;;;;;;3566077;40;20451;-77
2021/06/01 04:45:55;;;;;;;5.50;4.28;;;;;;;;;;3565968;40;20409;-76
2021/06/01 04:48:21;;;;;;;4.43;3.30;;;;;;;;;;3558623;40;20348;-76
2021/06/01 04:50:47;;;;;;;3.13;2.50;;;;;;;;;;3566217;40;20399;-77
2021/06/01 04:53:15;;;;;;;2.35;1.95;;;;;;;;;;3566072;40;20403;-76
2021/06/01 04:55:41;;;;;;;2.88;1.80;;;;;;;;;;3558530;40;20355;-78
2021/06/01 04:58:07;;;;;;;2.30;1.70;;;;;;;;;;3565778;40;20776;-77
2021/06/01 05:00:33;;;;;;;2.40;1.90;;;;;;;;;;3565721;40;20521;-75
2021/06/01 05:02:59;;;;;;;2.95;1.75;;;;;;;;;;3558381;40;20383;-78
2021/06/01 05:05:26;;;;;;;1.45;1.25;;;;;;;;;;3565696;40;20792;-77
2021/06/01 05:07:54;;;;;;;1.80;1.50;;;;;;;;;;3559197;40;20733;-77
2021/06/01 05:10:22;;;;;;;1.85;1.52;;;;;;;;;;3567535;40;20798;-77
2021/06/01 05:12:48;;;;;;;2.22;1.50;;;;;;;;;;3567142;40;20812;-76
2021/06/01 05:15:16;;;;;;;2.20;1.50;;;;;;;;;;3566593;40;21784;-77
2021/06/01 05:17:42;;;;;;;2.33;1.20;;;;;;;;;;3567117;40;20417;-77
2021/06/01 05:20:09;;;;;;;3.90;1.38;;;;;;;;;;3568273;40;20432;-77
2021/06/01 05:22:35;;;;;;;1.85;1.50;;;;;;;;;;3567124;40;20409;-77
2021/06/01 05:25:01;;;;;;;1.58;1.40;;;;;;;;;;3567283;40;20739;-76
2021/06/01 05:27:29;;;;;;;3.42;1.52;;;;;;;;;;3568278;40;20361;-76
2021/06/01 05:29:59;;;;;;;1.80;1.55;;;;;;;;;;3568088;40;20362;-77
2021/06/01 05:35:17;;;;;;;1.50;1.40;;;;;;;;;;3568153;40;20615;-77
2021/06/01 05:37:43;;;;;;;1.48;1.30;;;;;;;;;;3568084;40;20373;-77
2021/06/01 05:40:10;;;;;;;2.45;1.60;;;;;;;;;;3568216;40;20389;-75
2021/06/01 05:42:38;;;;;;;2.33;1.60;;;;;;;;;;3566939;40;20405;-78
2021/06/01 05:45:04;;;;;;;2.28;1.60;;;;;;;;;;3566898;40;20409;-77
2021/06/01 05:47:30;;;;;;;4.70;1.58;;;16.60;99.90;;;;;;3566929;40;20456;-77
2021/06/01 05:49:56;;;;;;;2.10;1.50;;;17.20;99.70;;;;;;3568447;40;20796;-78
2021/06/01 05:52:22;;;;;;;2.90;1.50;;;17.20;99.60;;;;;;3578084;40;20730;-76
2021/06/01 05:54:50;;;;;;;1.60;1.50;;;17.10;99.90;;;;;;3578122;40;20358;-77
2021/06/01 05:57:16;;;;;;;2.57;1.30;;;17.20;99.70;;;;;;3577732;40;20414;-76
2021/06/01 05:59:43;;;;;;;2.53;1.20;;;17.30;99.70;;;;;;3568180;40;20412;-77
2021/06/01 06:02:09;;;;;;;3.97;1.40;;;;;;;;;;3577646;40;20384;-76
2021/06/01 06:04:36;;;;;;;2.08;1.45;;;;;;;;;;3577895;40;20770;-80
2021/06/01 06:07:02;;;;;;;1.80;1.45;;;;;;;;;;3577846;40;20461;-78
2021/06/01 06:09:28;;;;;;;1.50;1.40;;;;;;;;;;3566432;40;20421;-77
2021/06/01 06:11:54;;;;;;;2.42;1.33;;;;;;;;;;3566561;40;20405;-76
2021/06/01 06:14:20;;;;;;;2.50;1.40;;;;;;;;;;3567304;40;20346;-77
2021/06/01 06:16:51;;;;;;;2.90;1.25;;;;;;;;;;3566682;40;20402;-77
2021/06/01 06:19:17;;;;;;;1.92;1.30;;;;;;;;;;3567538;40;20374;-76
2021/06/01 06:21:43;;;;;;;4.03;1.55;;;;;;;;;;3566472;40;20397;-77
2021/06/01 06:24:09;;;;;;;1.45;1.30;;;;;;;;;;3566702;40;20787;-77
2021/06/01 06:26:35;;;;;;;2.37;1.30;;;;;;;;;;3566467;40;20401;-76
2021/06/01 06:29:01;;;;;;;2.90;1.50;;;;;;;;;;3569913;40;20626;-76
2021/06/01 06:31:28;;;;;;;2.00;1.40;;;;;;;;;;3570974;40;20374;-77
2021/06/01 06:33:56;;;;;;;2.70;1.30;;;;;;;;;;3571086;40;20362;-77
2021/06/01 06:36:22;;;;;;;2.00;1.52;;;;;;;;;;3569791;40;20409;-77
2021/06/01 06:38:48;;;;;;;2.90;1.50;;;;;;;;;;3569926;40;20411;-75
2021/06/01 06:41:16;;;;;;;2.75;1.45;;;;;;;;;;3570659;40;20356;-76
2021/06/01 06:43:46;;;;;;;4.05;1.50;;;;;;;;;;3569883;40;20416;-77
2021/06/01 06:46:22;;;;;;;2.63;1.42;;;;;;;;;;3569691;40;20401;-76
2021/06/01 06:48:48;;;;;;;6.00;1.73;;;;;;;;;;3569471;40;20884;-77
2021/06/01 06:51:16;;;;;;;1.95;1.30;;;;;;;;;;3569661;40;20409;-77
2021/06/01 06:54:00;;;;;;;2.65;1.63;;;;;;;;;;3569455;40;20405;-77
2021/06/01 06:56:28;;;;;;;2.05;1.55;;;;;;;;;;3570483;40;20686;-76
2021/06/01 06:58:55;;;;;;;1.98;1.35;;;;;;;;;;3570636;40;20368;-75
2021/06/01 07:01:21;;;;;;;2.42;1.60;;;;;;;;;;3569544;40;20782;-78
2021/06/01 07:03:48;;;;;;;2.13;1.48;;;;;;;;;;3570478;40;20397;-77
2021/06/01 07:06:16;;;;;;;2.10;1.30;;;;;;;;;;3569251;40;20412;-77
2021/06/01 07:08:42;;;;;;;3.55;1.70;;;;;;;;;;3563656;40;20428;-77
2021/06/01 07:11:08;;;;;;;2.33;1.48;;;;;;;;;;3569178;40;20423;-76
2021/06/01 07:13:42;;;;;;;2.28;1.58;;;;;;;;;;3569554;40;20510;-76
2021/06/01 07:16:09;;;;;;;2.08;1.40;;;;;;;;;;3570662;40;20381;-76
2021/06/01 07:18:38;;;;;;;1.80;1.40;;;18.10;97.90;;;;;;3569567;40;20491;-77
2021/06/01 07:21:05;;;;;;;2.05;1.30;;;18.80;96.80;;;;;;3568542;40;20424;-76
2021/06/01 07:23:33;;;;;;;1.83;1.25;;;18.70;97.00;;;;;;3568686;40;20420;-78
2021/06/01 07:25:59;;;;;;;2.00;1.45;;;18.70;97.70;;;;;;3568852;40;20432;-77
2021/06/01 07:28:25;;;;;;;4.18;1.45;;;18.70;97.10;;;;;;3568784;40;20402;-76
2021/06/01 07:30:51;;;;;;;4.43;1.40;;;18.70;97.90;;;;;;3568958;40;20393;-79
2021/06/01 07:33:17;;;;;;;2.33;1.75;;;;;;;;;;3568813;40;20357;-76
2021/06/01 07:35:43;;;;;;;4.07;1.70;;;;;;;;;;3568435;40;20409;-77
2021/06/01 07:38:13;;;;;;;2.47;1.38;;;;;;;;;;3568646;40;20413;-76
2021/06/01 07:40:41;;;;;;;2.80;1.65;;;;;;;;;;3557064;40;20839;-76
2021/06/01 07:43:07;;;;;;;2.42;1.20;;;;;;;;;;3549210;40;20415;-81
2021/06/01 07:45:33;;;;;;;1.70;1.60;;;18.60;98.20;;;;;;3549102;40;20438;-76
2021/06/01 07:47:59;;;;;;;3.30;1.23;;;19.10;96.40;;;;;;3548900;40;20405;-75
2021/06/01 07:50:25;;;;;;;1.80;1.10;;;;;;;;;;3548818;40;20800;-76
2021/06/01 07:52:51;;;;;;;2.33;1.05;;;;;;;;;;3557568;40;20445;-77
2021/06/01 07:55:18;;;;;;;2.20;1.30;;;;;;;;;;3567792;40;20409;-76
2021/06/01 07:57:45;;;;;;;1.17;1.08;;;;;;;;;;3567462;40;20457;-76
2021/06/01 08:00:12;;;;;;;2.17;1.00;;;;;;;;;;3577639;40;20416;-77
2021/06/01 08:02:38;;;;;;;3.08;1.40;;;;;;;;;;3578654;40;20396;-77
2021/06/01 08:05:05;;;;;;;2.88;1.33;;;;;;;;;;3577458;40;20403;-77
2021/06/01 08:07:33;;;;;;;2.13;1.40;;;;;;;;;;3577366;40;20653;-77
2021/06/01 08:10:00;;;;;;;2.70;1.50;;;;;;;;;;3576356;40;20379;-78
2021/06/01 08:12:26;;;;;;;1.92;1.65;;;;;;;;;;3577395;40;20796;-76
2021/06/01 08:14:56;;;;;;;2.80;1.85;;;;;;;;;;3578692;40;20392;-78
2021/06/01 08:17:22;;;;;;;2.97;2.15;;;;;;;;;;3577396;40;20773;-76
2021/06/01 08:19:48;;;;;;;2.20;1.85;;;19.30;97.30;;;;;;3577184;40;20426;-76
2021/06/01 08:22:30;;;;;;;3.38;1.73;;;19.60;96.40;;;;;;3577204;40;20400;-77
2021/06/01 08:24:56;;;;;;;2.20;2.00;;;19.60;97.30;;;;;;3576721;40;20395;-79
2021/06/01 08:27:22;;;;;;;3.37;3.07;;;19.90;96.30;;;;;;3576805;40;20796;-77
2021/06/01 08:29:49;;;;;;;5.00;3.73;;;;;;;;;;3576909;40;20510;-76
2021/06/01 08:32:16;;;;;;;5.47;3.50;;;;;;;;;;3576708;40;20436;-76
2021/06/01 08:34:42;;;;;;;5.22;4.20;;;;;;;;;;3556942;40;20832;-76
2021/06/01 08:37:10;;;;;;;6.30;4.57;;;;;;;;;;3556261;40;20414;-78
2021/06/01 08:39:36;;;;;;;6.00;5.40;;;;;;;;;;3556340;40;20808;-77
2021/06/01 08:42:03;;;;;;;5.68;5.15;;;;;;;;;;3556668;40;20412;-77
2021/06/01 08:44:29;;;;;;;6.25;5.20;;;;;;;;;;3556894;40;20379;-76
2021/06/01 08:46:56;;;;;;;8.32;5.95;;;;;;;;;;3556613;40;20673;-79
2021/06/01 08:49:24;;;;;;;8.82;6.78;;;19.90;95.20;;;;;;3556418;40;20358;-76
2021/06/01 08:51:50;;;;;;;8.30;7.50;;;;;;;;;;3556484;40;20414;-77
2021/06/01 08:54:16;;;;;;;8.35;7.45;;;;;;;;;;3556591;40;20418;-77
2021/06/01 08:56:44;;;;;;;8.38;7.20;;;;;;;;;;3566115;40;20365;-76
2021/06/01 08:59:12;;;;;;;7.45;6.75;;;19.70;95.90;;;;;;3578654;40;20376;-75
2021/06/01 09:01:38;;;;;;;8.48;7.55;;;;;;;;;;3568419;40;20403;-79
2021/06/01 09:04:09;;;;;;;7.17;6.43;;;20.30;94.60;;;;;;3577040;40;20400;-76
2021/06/01 09:12:05;;;;;;;6.97;6.28;;;20.80;93.50;;;;;;3577786;40;20403;-77
2021/06/01 09:22:49;;;;;;;8.27;7.03;;;;;;;;;;3578079;40;20367;-79
2021/06/01 09:25:20;;;;;;;7.72;6.72;;;;;;;;;;3578365;40;20352;-77
2021/06/01 09:27:47;;;;;;;9.00;6.97;;;;;;;;;;3578604;40;20352;-77
2021/06/01 09:30:28;;;;;;;7.60;6.90;;;;;;;;;;3578397;40;20725;-77
2021/06/01 09:32:54;;;;;;;7.50;6.80;;;;;;;;;;3576738;40;20403;-77
2021/06/01 09:35:21;;;;;;;5.95;5.38;;;;;;;;;;3577329;40;20412;-77
2021/06/01 09:37:48;;;;;;;8.70;7.00;;;;;;;;;;3577282;40;20411;-77
2021/06/01 09:40:17;;;;;;;8.55;7.65;;;;;;;;;;3578343;40;20376;-77
2021/06/01 09:42:44;;;;;;;8.60;6.78;;;;;;;;;;3578361;40;20450;-82
2021/06/01 09:45:13;;;;;;;6.95;6.30;;;21.30;93.10;;;;;;3577465;40;20399;-77
2021/06/01 09:47:49;;;;;;;6.68;5.72;;;;;;;;;;3566329;40;20767;-78
2021/06/01 09:50:23;;;;;;;8.32;7.15;;;22.70;92.80;;;;;;3566588;40;20361;-76
2021/06/01 09:52:53;;;;;;;8.63;7.47;;;;;;;;;;3566499;40;20441;-77
2021/06/01 09:55:36;;;;;;;7.97;7.18;;;;;;;;;;3566310;40;20365;-77
2021/06/01 09:58:04;;;;;;;7.72;6.68;;;;;;;;;;3566597;40;20358;-77
2021/06/01 10:00:31;;;;;;;9.18;7.65;;;;;;;;;;3558270;40;20406;-80
2021/06/01 10:03:00;;;;;;;9.13;8.10;;;;;;;;;;3557827;40;20409;-76
2021/06/01 10:05:27;;;;;;;9.02;8.18;;;;;;;;;;3558027;40;20420;-76
2021/06/01 10:07:57;;;;;;;8.60;7.70;;;23.30;91.50;;;;;;3558431;40;20433;-80
2021/06/01 10:10:25;;;;;;;9.27;6.97;;;23.70;91.60;;;;;;3566302;40;20381;-76
2021/06/01 10:12:53;;;;;;;8.02;7.22;;;23.50;91.20;;;;;;3566368;40;20860;-77
2021/06/01 10:15:21;;;;;;;9.25;8.35;;;;;;;;;;3567022;40;20354;-77
2021/06/01 10:17:48;;;;;;;9.98;9.02;;;;;;;;;;3558296;40;20401;-76
2021/06/01 10:20:15;;;;;;;9.93;8.30;;;;;;;;;;3568250;40;20370;-77
2021/06/01 10:22:41;;;;;;;8.43;7.60;;;;;;;;;;3575555;40;20416;-76
2021/06/01 10:25:11;;;;;;;7.50;6.80;;;23.70;90.00;;;;;;3558266;40;20403;-78
2021/06/01 10:27:37;;;;;;;8.57;6.95;;;23.20;89.60;;;;;;3565182;40;20559;-78
2021/06/01 10:30:05;;;;;;;9.35;8.20;;;23.20;90.10;;;;;;3565225;40;20493;-77
2021/06/01 10:32:34;;;;;;;9.82;8.82;;;22.80;89.50;;;;;;3556859;40;20415;-76
2021/06/01 10:35:03;;;;;;;10.73;8.27;;;22.60;90.10;;;;;;3557050;40;20429;-77
2021/06/01 10:51:27;;;;;;;9.55;8.35;;;23.10;90.60;;;;;;3557826;40;20399;-77
2021/06/01 10:53:54;;;;;;;8.15;7.43;;;23.40;89.50;;;;;;3557410;40;20846;-78
2021/06/01 10:56:21;;;;;;;8.68;7.88;;;;;;;;;;3564687;40;20415;-77
2021/06/01 10:58:56;;;;;;;8.03;6.57;;;;;;;;;;3556680;40;20462;-76
2021/06/01 11:04:09;;;;;;;8.15;7.15;;;;;;;;;;3565908;40;20369;-76
2021/06/01 11:06:59;;;;;;;8.18;7.38;;;;;;;;;;3565814;40;20798;-76
2021/06/01 11:09:45;;;;;;;8.07;6.70;;;;;;;;;;3565704;40;20394;-78
2021/06/01 11:12:27;;;;;;;9.20;6.45;;;;;;;;;;3555893;40;20461;-77
2021/06/01 11:14:56;;;;;;;6.37;5.70;;;;;;;;;;3556530;40;20410;-77
2021/06/01 11:17:32;;;;;;;6.40;5.80;;;;;;;;;;3557488;40;20382;-78
2021/06/01 11:20:09;;;;;;;5.38;4.32;;;23.40;90.00;;;;;;3557390;40;20403;-80
2021/06/01 11:35:56;;;;;;;6.27;5.67;;;;;;;;;;3557671;40;20797;-78
2021/06/01 11:38:39;;;;;;;4.93;4.45;;;;;;;;;;3557319;40;20396;-77
2021/06/01 11:43:52;;;;;;;6.28;5.57;;;;;;;;;;3547655;40;20396;-78
2021/06/01 11:51:15;;;;;;;6.20;5.47;;;;;;;;;;3547497;40;20381;-80
2021/06/01 11:53:50;;;;;;;5.72;5.22;;;;;;;;;;3552633;40;20364;-77
2021/06/01 11:56:32;;;;;;;9.93;5.75;;;24.30;81.50;;;;;;3549005;40;20402;-76
2021/06/01 12:04:36;;;;;;;6.15;5.45;;;;;;;;;;3557771;40;20388;-79
2021/06/01 12:21:20;;;;;;;7.28;5.70;;;;;;;;;;3547196;40;20417;-77
2021/06/01 12:23:51;;;;;;;6.43;5.32;;;;;;;;;;3547375;40;20389;-77
2021/06/01 12:26:44;;;;;;;5.17;4.30;;;;;;;;;;3547134;40;20877;-78
2021/06/01 12:31:56;;;;;;;7.57;5.80;;;;;;;;;;3547154;40;20400;-77
2021/06/01 12:34:41;;;;;;;5.95;5.43;;;26.30;77.00;;;;;;3547491;40;20783;-76
2021/06/01 12:42:33;;;;;;;7.03;6.33;;;27.60;73.90;;;;;;3559432;40;20383;-78
2021/06/01 12:44:59;;;;;;;4.97;4.57;;;27.50;74.00;;;;;;3566310;40;20399;-76
2021/06/01 13:21:39;;;;;;;7.00;5.77;;;;;;;;;;3537064;40;20450;-79
2021/06/01 13:36:24;;;;;;;7.70;6.00;;;;;;;;;;3537504;40;20389;-77
2021/06/01 13:38:22;;;;;;;8.80;8.00;;;27.90;73.00;;;;;;3565989;40;20373;-77
2021/06/01 13:45:59;;;;;;;9.55;8.63;;;27.40;70.20;;;;;;3566600;40;20405;-78
2021/06/01 13:46:38;;;;;;;9.90;8.13;;;;;;;;;;3556875;40;20472;-78
2021/06/01 13:49:32;;;;;;;8.50;6.18;;;;;;;;;;3556787;40;20374;-77
2021/06/01 14:30:40;;;;;;;4.55;4.15;;;;;;;;;;3567973;40;20542;-78
2021/06/01 15:49:22;;;;;;;3.78;1.83;;;29.70;60.90;;;;;;3579129;40;20658;-77
2021/06/01 16:14:32;;;;;;;1.85;1.60;;;29.80;60.00;;;;;;3568978;40;20467;-77
2021/06/01 16:22:54;;;;;;;2.00;1.80;;;29.10;58.60;;;;;;3568700;40;20424;-78
2021/06/01 16:42:11;;;;;;;1.95;1.38;;;;;;;;;;3567315;40;20409;-77
2021/06/01 17:03:08;;;;;;;1.92;1.63;;;29.30;58.00;;;;;;3549097;40;20485;-78
2021/06/01 17:07:17;;;;;;;5.43;2.10;;;;;;;;;;3527821;40;20436;-77
2021/06/01 17:12:32;;;;;;;2.50;1.00;;;;;;;;;;3546185;40;20435;-78
2021/06/01 17:15:00;;;;;;;3.65;1.40;;;;;;;;;;3545678;40;20824;-76
2021/06/01 17:17:27;;;;;;;3.22;1.60;;;;;;;;;;3546942;40;20350;-77
2021/06/01 17:35:57;;;;;;;2.20;1.90;;;27.20;67.30;;;;;;3568992;40;20414;-77
2021/06/01 17:38:24;;;;;;;2.58;1.40;;;;;;;;;;3568802;40;20366;-78
2021/06/01 17:40:54;;;;;;;4.55;1.33;;;;;;;;;;3568683;40;20416;-77
2021/06/01 17:43:22;;;;;;;2.75;1.60;;;;;;;;;;3567304;40;20453;-76
2021/06/01 17:45:52;;;;;;;2.10;1.35;;;26.80;68.50;;;;;;3568746;40;20366;-77
2021/06/01 17:48:34;;;;;;;2.85;1.70;;;26.40;69.20;;;;;;3569012;40;20358;-77
2021/06/01 17:51:05;;;;;;;3.43;2.03;;;;;;;;;;3568386;40;20369;-78
2021/06/01 17:53:32;;;;;;;1.48;1.20;;;;;;;;;;3568766;40;20825;-77
2021/06/01 17:55:59;;;;;;;4.45;1.75;;;;;;;;;;3560638;40;21335;-76
2021/06/01 17:58:26;;;;;;;3.92;2.40;;;;;;;;;;3568583;40;20630;-78
2021/06/01 18:00:53;;;;;;;3.03;1.70;;;;;;;;;;3578228;40;20360;-77
2021/06/01 18:03:22;;;;;;;2.78;1.55;;;;;;;;;;3568635;40;20404;-77
2021/06/01 18:05:50;;;;;;;2.03;1.80;;;;;;;;;;3568647;40;20532;-78
2021/06/01 18:08:30;;;;;;;3.75;2.10;;;;;;;;;;3568204;40;20412;-76
2021/06/01 18:13:59;;;;;;;2.05;1.85;;;;;;;;;;3556310;40;20406;-76
2021/06/01 19:24:55;;;;;;;2.70;2.30;;;;;;;;;;3557104;40;20383;-77
2021/06/01 19:51:59;;;;;;;4.55;3.80;;;;;;;;;;3558940;40;20437;-77
2021/06/01 19:54:28;;;;;;;4.70;3.10;;;;;;;;;;3558450;40;20400;-77
2021/06/01 19:56:54;;;;;;;3.63;3.25;;;;;;;;;;3557611;40;20411;-79
2021/06/01 19:59:20;;;;;;;4.55;2.88;;;;;;;;;;3557846;40;20399;-76
2021/06/01 20:01:46;;;;;;;5.70;4.30;;;;;;;;;;3558801;40;20360;-75
2021/06/01 20:04:13;;;;;;;6.33;3.73;;;;;;;;;;3558705;40;20369;-76
2021/06/01 20:06:39;;;;;;;5.85;3.92;;;;;;;;;;3558562;40;20344;-76
2021/06/01 20:09:05;;;;;;;5.90;4.80;;;;;;;;;;3557366;40;20773;-78
2021/06/01 20:11:34;;;;;;;4.68;3.92;;;;;;;;;;3560454;40;20397;-77
2021/06/01 20:14:00;;;;;;;4.00;3.25;;;;;;;;;;3568300;40;20452;-77
2021/06/01 20:16:27;;;;;;;4.35;3.90;;;;;;;;;;3568443;40;20354;-77
2021/06/01 20:18:53;;;;;;;6.83;4.80;;;;;;;;;;3578383;40;20344;-76
2021/06/01 20:21:19;;;;;;;4.72;3.70;;;;;;;;;;3569106;40;20420;-77
2021/06/01 20:23:46;;;;;;;6.50;3.78;;;;;;;;;;3569145;40;20454;-78
2021/06/01 20:26:13;;;;;;;5.13;3.70;;;;;;;;;;3569096;40;20529;-77
2021/06/01 20:28:47;;;;;;;3.70;2.97;;;;;;;;;;3569473;40;20419;-76
2021/06/01 20:31:17;;;;;;;3.95;3.33;;;;;;;;;;3578704;40;20372;-76
2021/06/01 20:33:44;;;;;;;5.97;4.40;;;;;;;;;;3560151;40;20364;-77
2021/06/01 20:36:10;;;;;;;4.55;3.25;;;;;;;;;;3568903;40;20414;-77
2021/06/01 20:38:37;;;;;;;4.05;3.65;;;;;;;;;;3578342;40;20376;-75
2021/06/01 20:41:04;;;;;;;4.57;4.00;;;;;;;;;;3577993;40;20368;-78
2021/06/01 20:43:30;;;;;;;4.13;2.90;;;;;;;;;;3568945;40;20400;-76
2021/06/01 20:45:58;;;;;;;7.28;4.50;;;;;;;;;;3568996;40;20404;-77
2021/06/01 20:48:26;;;;;;;4.50;3.40;;;;;;;;;;3569142;40;20447;-77
2021/06/01 20:50:53;;;;;;;3.55;2.95;;;;;;;;;;3569155;40;20412;-76
2021/06/01 20:53:20;;;;;;;4.97;3.70;;;;;;;;;;3578711;40;20396;-77
2021/06/01 20:55:47;;;;;;;3.97;3.47;;;;;;;;;;3569224;40;20410;-77
2021/06/01 20:58:18;;;;;;;3.90;3.00;;;;;;;;;;3569057;40;20400;-76
2021/06/01 21:00:45;;;;;;;3.47;3.13;;;;;;;;;;3568945;40;20404;-77
2021/06/01 21:03:16;;;;;;;3.22;2.92;;;;;;;;;;3578246;40;20439;-77
2021/06/01 21:05:43;;;;;;;4.50;3.10;;;;;;;;;;3567785;40;20436;-76
2021/06/01 21:08:09;;;;;;;4.13;2.97;;;;;;;;;;3566950;40;20859;-77
2021/06/01 21:10:36;;;;;;;4.43;3.50;;;;;;;;;;3566846;40;20408;-77
2021/06/01 21:13:03;;;;;;;4.88;3.60;;;;;;;;;;3567085;40;20795;-76
2021/06/01 21:15:29;;;;;;;4.32;3.10;;;;;;;;;;3567037;40;20402;-75
2021/06/01 21:17:55;;;;;;;4.90;3.25;;;;;;;;;;3566961;40;20401;-77
2021/06/01 21:20:24;;;;;;;3.75;3.33;;;;;;;;;;3567673;40;20365;-77
2021/06/01 21:22:51;;;;;;;3.67;2.83;;;;;;;;;;3567849;40;20456;-76
2021/06/01 21:25:20;;;;;;;3.92;2.95;;;;;;;;;;3567910;40;20417;-77
2021/06/01 21:27:47;;;;;;;3.28;2.97;;;;;;;;;;3568031;40;20390;-76
2021/06/01 21:30:14;;;;;;;3.30;3.00;;;;;;;;;;3566821;40;20417;-76
2021/06/01 21:32:43;;;;;;;2.92;2.72;;;;;;;;;;3566785;40;20766;-76
2021/06/01 21:35:09;;;;;;;2.70;2.50;;;;;;;;;;3568135;40;20919;-77
2021/06/01 21:37:42;;;;;;;3.97;3.20;;;;;;;;;;3567831;40;20848;-77
2021/06/01 21:40:08;;;;;;;4.57;3.03;;;;;;;;;;3566950;40;20563;-77
2021/06/01 21:42:35;;;;;;;4.95;3.45;;;;;;;;;;3566824;40;20406;-77
2021/06/01 21:45:04;;;;;;;3.20;2.90;;;;;;;;;;3567046;40;20779;-77